sensor_id;sensor_type;location;lat;lon;timestamp;temperature;humidity
76878;DHT22;65843;50.692;12.844;2023-04-03T00:00:01;20.00;62.00
76878;DHT22;65843;50.692;12.844;2023-04-03T00:01:02;20.10;61.90
76878;DHT22;65843;50.692;12.844;2023-04-03T00:02:03;20.10;62.20
76878;DHT22;65843;50.692;12.844;2023-04-03T00:03:04;20.10;62.20
76878;DHT22;65843;50.692;12.844;2023-04-03T00:04:05;20.00;61.90
76878;DHT22;65843;50.692;12.844;2023-04-03T00:05:06;20.10;62.00
76878;DHT22;65843;50.692;12.844;2023-04-03T00:06:08;20.00;62.30
76878;DHT22;65843;50.692;12.844;2023-04-03T00:07:11;20.10;62.10
76878;DHT22;65843;50.692;12.844;2023-04-03T00:08:13;20.10;62.10
76878;DHT22;65843;50.692;12.844;2023-04-03T00:09:13;20.10;62.20
76878;DHT22;65843;50.692;12.844;2023-04-03T00:10:15;20.10;62.30
76878;DHT22;65843;50.692;12.844;2023-04-03T00:11:16;20.10;62.20
76878;DHT22;65843;50.692;12.844;2023-04-03T00:12:17;20.00;61.90
76878;DHT22;65843;50.692;12.844;2023-04-03T00:13:18;20.10;61.90
76878;DHT22;65843;50.692;12.844;2023-04-03T00:14:19;20.10;61.80
76878;DHT22;65843;50.692;12.844;2023-04-03T00:15:20;20.10;62.20
76878;DHT22;65843;50.692;12.844;2023-04-03T00:16:21;20.00;62.20
76878;DHT22;65843;50.692;12.844;2023-04-03T00:17:22;20.00;62.10
76878;DHT22;65843;50.692;12.844;2023-04-03T00:18:23;20.00;62.10
76878;DHT22;65843;50.692;12.844;2023-04-03T00:19:24;20.00;62.40
76878;DHT22;65843;50.692;12.844;2023-04-03T00:20:25;20.00;62.40
76878;DHT22;65843;50.692;12.844;2023-04-03T00:21:26;20.00;62.20
76878;DHT22;65843;50.692;12.844;2023-04-03T00:22:27;20.00;62.20
76878;DHT22;65843;50.692;12.844;2023-04-03T00:23:29;20.00;62.40
76878;DHT22;65843;50.692;12.844;2023-04-03T00:24:30;20.00;62.30
76878;DHT22;65843;50.692;12.844;2023-04-03T00:25:31;20.10;62.30
76878;DHT22;65843;50.692;12.844;2023-04-03T00:26:32;20.10;62.20
76878;DHT22;65843;50.692;12.844;2023-04-03T00:27:32;20.00;62.40
76878;DHT22;65843;50.692;12.844;2023-04-03T00:28:33;20.00;62.40
76878;DHT22;65843;50.692;12.844;2023-04-03T00:29:35;20.00;62.40
76878;DHT22;65843;50.692;12.844;2023-04-03T00:30:36;20.00;62.50
76878;DHT22;65843;50.692;12.844;2023-04-03T00:31:37;20.00;62.10
76878;DHT22;65843;50.692;12.844;2023-04-03T00:32:38;20.10;62.30
76878;DHT22;65843;50.692;12.844;2023-04-03T00:33:39;20.00;62.20
76878;DHT22;65843;50.692;12.844;2023-04-03T00:34:39;20.00;62.20
76878;DHT22;65843;50.692;12.844;2023-04-03T00:35:40;20.00;61.90
76878;DHT22;65843;50.692;12.844;2023-04-03T00:36:41;20.00;62.20
76878;DHT22;65843;50.692;12.844;2023-04-03T00:37:43;20.00;62.20
76878;DHT22;65843;50.692;12.844;2023-04-03T00:38:44;20.00;61.90
76878;DHT22;65843;50.692;12.844;2023-04-03T00:39:45;20.00;62.20
76878;DHT22;65843;50.692;12.844;2023-04-03T00:40:47;20.00;62.30
76878;DHT22;65843;50.692;12.844;2023-04-03T00:41:48;20.00;62.30
76878;DHT22;65843;50.692;12.844;2023-04-03T00:42:51;20.00;62.00
76878;DHT22;65843;50.692;12.844;2023-04-03T00:43:52;20.00;62.00
76878;DHT22;65843;50.692;12.844;2023-04-03T00:45:58;20.00;62.20
76878;DHT22;65843;50.692;12.844;2023-04-03T00:46:59;20.00;62.20
76878;DHT22;65843;50.692;12.844;2023-04-03T00:48:01;20.00;61.90
76878;DHT22;65843;50.692;12.844;2023-04-03T00:49:06;20.00;62.20
76878;DHT22;65843;50.692;12.844;2023-04-03T00:50:07;20.00;62.20
76878;DHT22;65843;50.692;12.844;2023-04-03T00:51:09;20.00;61.70
76878;DHT22;65843;50.692;12.844;2023-04-03T00:52:13;20.00;62.20
76878;DHT22;65843;50.692;12.844;2023-04-03T00:53:18;20.00;62.20
76878;DHT22;65843;50.692;12.844;2023-04-03T00:54:20;20.00;62.20
76878;DHT22;65843;50.692;12.844;2023-04-03T00:55:21;20.00;62.00
76878;DHT22;65843;50.692;12.844;2023-04-03T00:56:23;20.00;62.20
76878;DHT22;65843;50.692;12.844;2023-04-03T00:57:25;20.00;62.80
76878;DHT22;65843;50.692;12.844;2023-04-03T00:58:33;20.00;62.30
76878;DHT22;65843;50.692;12.844;2023-04-03T00:59:36;20.00;61.80
76878;DHT22;65843;50.692;12.844;2023-04-03T01:00:40;20.00;62.30
76878;DHT22;65843;50.692;12.844;2023-04-03T01:01:43;20.10;62.30
76878;DHT22;65843;50.692;12.844;2023-04-03T01:02:44;20.00;62.10
76878;DHT22;65843;50.692;12.844;2023-04-03T01:03:45;20.10;62.20
76878;DHT22;65843;50.692;12.844;2023-04-03T01:04:46;20.00;62.30
76878;DHT22;65843;50.692;12.844;2023-04-03T01:05:47;20.00;62.20
76878;DHT22;65843;50.692;12.844;2023-04-03T01:06:48;20.00;62.10
76878;DHT22;65843;50.692;12.844;2023-04-03T01:07:50;20.00;62.30
76878;DHT22;65843;50.692;12.844;2023-04-03T01:08:51;20.00;62.00
76878;DHT22;65843;50.692;12.844;2023-04-03T01:09:55;20.00;62.10
76878;DHT22;65843;50.692;12.844;2023-04-03T01:10:57;20.00;62.10
76878;DHT22;65843;50.692;12.844;2023-04-03T01:13:17;20.00;62.20
76878;DHT22;65843;50.692;12.844;2023-04-03T01:14:18;20.00;62.10
76878;DHT22;65843;50.692;12.844;2023-04-03T01:15:21;20.00;62.30
76878;DHT22;65843;50.692;12.844;2023-04-03T01:16:23;20.00;62.20
76878;DHT22;65843;50.692;12.844;2023-04-03T01:17:32;20.00;62.10
76878;DHT22;65843;50.692;12.844;2023-04-03T01:18:34;20.00;62.30
76878;DHT22;65843;50.692;12.844;2023-04-03T01:19:36;20.00;62.20
76878;DHT22;65843;50.692;12.844;2023-04-03T01:25:23;20.00;62.00
76878;DHT22;65843;50.692;12.844;2023-04-03T01:26:24;20.00;62.10
76878;DHT22;65843;50.692;12.844;2023-04-03T01:27:26;20.00;62.10
76878;DHT22;65843;50.692;12.844;2023-04-03T01:28:29;20.00;62.30
76878;DHT22;65843;50.692;12.844;2023-04-03T01:29:31;20.00;62.20
76878;DHT22;65843;50.692;12.844;2023-04-03T01:30:33;20.00;62.20
76878;DHT22;65843;50.692;12.844;2023-04-03T01:32:36;20.00;62.20
76878;DHT22;65843;50.692;12.844;2023-04-03T01:33:37;20.00;62.40
76878;DHT22;65843;50.692;12.844;2023-04-03T01:34:38;20.00;62.60
76878;DHT22;65843;50.692;12.844;2023-04-03T01:35:39;20.00;62.20
76878;DHT22;65843;50.692;12.844;2023-04-03T01:36:40;20.00;62.30
76878;DHT22;65843;50.692;12.844;2023-04-03T01:37:41;20.00;62.20
76878;DHT22;65843;50.692;12.844;2023-04-03T01:38:42;20.00;62.20
76878;DHT22;65843;50.692;12.844;2023-04-03T01:39:43;20.00;62.20
76878;DHT22;65843;50.692;12.844;2023-04-03T01:40:44;20.00;62.20
76878;DHT22;65843;50.692;12.844;2023-04-03T01:41:45;20.00;62.20
76878;DHT22;65843;50.692;12.844;2023-04-03T01:42:46;20.00;61.90
76878;DHT22;65843;50.692;12.844;2023-04-03T01:43:48;20.00;62.10
76878;DHT22;65843;50.692;12.844;2023-04-03T01:44:49;20.00;62.20
76878;DHT22;65843;50.692;12.844;2023-04-03T01:45:50;20.00;62.20
76878;DHT22;65843;50.692;12.844;2023-04-03T01:46:53;20.00;62.30
76878;DHT22;65843;50.692;12.844;2023-04-03T01:47:53;20.00;62.20
76878;DHT22;65843;50.692;12.844;2023-04-03T01:48:54;20.00;62.50
76878;DHT22;65843;50.692;12.844;2023-04-03T01:49:56;20.00;62.20
76878;DHT22;65843;50.692;12.844;2023-04-03T01:50:57;20.00;62.20
76878;DHT22;65843;50.692;12.844;2023-04-03T01:51:58;20.00;62.20
76878;DHT22;65843;50.692;12.844;2023-04-03T01:52:58;20.00;62.20
76878;DHT22;65843;50.692;12.844;2023-04-03T01:53:59;20.00;62.20
76878;DHT22;65843;50.692;12.844;2023-04-03T01:55:00;20.00;62.30
76878;DHT22;65843;50.692;12.844;2023-04-03T01:56:01;20.00;62.20
76878;DHT22;65843;50.692;12.844;2023-04-03T01:57:03;20.00;62.30
76878;DHT22;65843;50.692;12.844;2023-04-03T01:58:04;20.00;62.20
76878;DHT22;65843;50.692;12.844;2023-04-03T01:59:04;20.00;62.30
76878;DHT22;65843;50.692;12.844;2023-04-03T02:00:06;20.00;62.40
76878;DHT22;65843;50.692;12.844;2023-04-03T02:01:08;20.00;62.20
76878;DHT22;65843;50.692;12.844;2023-04-03T02:02:09;20.00;62.20
76878;DHT22;65843;50.692;12.844;2023-04-03T02:03:10;20.00;62.40
76878;DHT22;65843;50.692;12.844;2023-04-03T02:04:11;20.00;62.40
76878;DHT22;65843;50.692;12.844;2023-04-03T02:05:12;20.00;62.20
76878;DHT22;65843;50.692;12.844;2023-04-03T02:06:13;20.00;62.50
76878;DHT22;65843;50.692;12.844;2023-04-03T02:07:14;20.00;62.20
76878;DHT22;65843;50.692;12.844;2023-04-03T02:08:15;20.00;62.30
76878;DHT22;65843;50.692;12.844;2023-04-03T02:09:18;20.00;62.30
76878;DHT22;65843;50.692;12.844;2023-04-03T02:10:19;20.00;62.30
76878;DHT22;65843;50.692;12.844;2023-04-03T02:11:20;20.00;62.20
76878;DHT22;65843;50.692;12.844;2023-04-03T02:12:21;20.00;62.50
76878;DHT22;65843;50.692;12.844;2023-04-03T02:13:22;20.00;62.40
76878;DHT22;65843;50.692;12.844;2023-04-03T02:14:23;20.00;62.30
76878;DHT22;65843;50.692;12.844;2023-04-03T02:15:24;20.00;62.20
76878;DHT22;65843;50.692;12.844;2023-04-03T02:16:25;20.00;62.30
76878;DHT22;65843;50.692;12.844;2023-04-03T02:17:26;20.00;62.40
76878;DHT22;65843;50.692;12.844;2023-04-03T02:18:27;20.00;62.30
76878;DHT22;65843;50.692;12.844;2023-04-03T02:19:28;20.00;62.40
76878;DHT22;65843;50.692;12.844;2023-04-03T02:20:29;20.00;62.20
76878;DHT22;65843;50.692;12.844;2023-04-03T02:21:30;20.00;62.30
76878;DHT22;65843;50.692;12.844;2023-04-03T02:22:31;20.00;62.50
76878;DHT22;65843;50.692;12.844;2023-04-03T02:23:32;20.00;62.50
76878;DHT22;65843;50.692;12.844;2023-04-03T02:24:33;20.00;62.40
76878;DHT22;65843;50.692;12.844;2023-04-03T02:25:34;20.00;62.50
76878;DHT22;65843;50.692;12.844;2023-04-03T02:26:35;20.00;62.50
76878;DHT22;65843;50.692;12.844;2023-04-03T02:27:36;20.00;62.60
76878;DHT22;65843;50.692;12.844;2023-04-03T02:28:37;20.00;62.50
76878;DHT22;65843;50.692;12.844;2023-04-03T02:29:38;20.00;62.50
76878;DHT22;65843;50.692;12.844;2023-04-03T02:30:39;20.00;62.40
76878;DHT22;65843;50.692;12.844;2023-04-03T02:31:40;20.00;62.60
76878;DHT22;65843;50.692;12.844;2023-04-03T02:32:41;20.00;62.70
76878;DHT22;65843;50.692;12.844;2023-04-03T02:33:43;20.00;62.70
76878;DHT22;65843;50.692;12.844;2023-04-03T02:34:44;20.00;62.70
76878;DHT22;65843;50.692;12.844;2023-04-03T02:35:44;20.00;62.60
76878;DHT22;65843;50.692;12.844;2023-04-03T02:36:53;20.00;62.50
76878;DHT22;65843;50.692;12.844;2023-04-03T02:37:54;20.00;62.70
76878;DHT22;65843;50.692;12.844;2023-04-03T02:38:55;20.00;62.50
76878;DHT22;65843;50.692;12.844;2023-04-03T02:39:56;20.00;62.50
76878;DHT22;65843;50.692;12.844;2023-04-03T02:41:00;20.00;62.40
76878;DHT22;65843;50.692;12.844;2023-04-03T02:42:02;20.00;62.40
76878;DHT22;65843;50.692;12.844;2023-04-03T02:43:02;20.00;62.50
76878;DHT22;65843;50.692;12.844;2023-04-03T02:44:04;20.00;62.70
76878;DHT22;65843;50.692;12.844;2023-04-03T02:45:05;20.00;62.50
76878;DHT22;65843;50.692;12.844;2023-04-03T02:46:07;20.00;62.40
76878;DHT22;65843;50.692;12.844;2023-04-03T02:47:07;20.00;62.30
76878;DHT22;65843;50.692;12.844;2023-04-03T02:48:08;20.00;62.50
76878;DHT22;65843;50.692;12.844;2023-04-03T02:49:09;20.00;62.70
76878;DHT22;65843;50.692;12.844;2023-04-03T02:50:10;20.00;62.70
76878;DHT22;65843;50.692;12.844;2023-04-03T02:51:11;20.00;62.70
76878;DHT22;65843;50.692;12.844;2023-04-03T02:52:13;20.00;62.40
76878;DHT22;65843;50.692;12.844;2023-04-03T02:53:14;20.00;62.50
76878;DHT22;65843;50.692;12.844;2023-04-03T02:54:15;20.00;62.50
76878;DHT22;65843;50.692;12.844;2023-04-03T02:55:16;20.00;62.70
76878;DHT22;65843;50.692;12.844;2023-04-03T02:56:17;20.00;62.90
76878;DHT22;65843;50.692;12.844;2023-04-03T02:57:19;20.00;62.90
76878;DHT22;65843;50.692;12.844;2023-04-03T02:58:20;20.00;62.90
76878;DHT22;65843;50.692;12.844;2023-04-03T02:59:21;20.00;62.90
76878;DHT22;65843;50.692;12.844;2023-04-03T03:00:22;20.00;62.90
76878;DHT22;65843;50.692;12.844;2023-04-03T03:01:23;20.00;62.80
76878;DHT22;65843;50.692;12.844;2023-04-03T03:02:24;20.00;63.00
76878;DHT22;65843;50.692;12.844;2023-04-03T03:03:25;20.00;62.90
76878;DHT22;65843;50.692;12.844;2023-04-03T03:04:26;20.00;62.70
76878;DHT22;65843;50.692;12.844;2023-04-03T03:05:27;20.00;62.80
76878;DHT22;65843;50.692;12.844;2023-04-03T03:06:28;20.00;63.10
76878;DHT22;65843;50.692;12.844;2023-04-03T03:07:29;20.00;63.20
76878;DHT22;65843;50.692;12.844;2023-04-03T03:08:30;20.00;63.00
76878;DHT22;65843;50.692;12.844;2023-04-03T03:09:31;20.00;63.10
76878;DHT22;65843;50.692;12.844;2023-04-03T03:10:32;20.00;63.10
76878;DHT22;65843;50.692;12.844;2023-04-03T03:11:33;20.00;63.10
76878;DHT22;65843;50.692;12.844;2023-04-03T03:12:34;20.00;63.00
76878;DHT22;65843;50.692;12.844;2023-04-03T03:13:35;20.00;63.10
76878;DHT22;65843;50.692;12.844;2023-04-03T03:14:36;20.00;62.70
76878;DHT22;65843;50.692;12.844;2023-04-03T03:15:37;20.00;62.70
76878;DHT22;65843;50.692;12.844;2023-04-03T03:16:38;20.00;62.50
76878;DHT22;65843;50.692;12.844;2023-04-03T03:17:38;20.00;62.70
76878;DHT22;65843;50.692;12.844;2023-04-03T03:18:39;20.00;62.60
76878;DHT22;65843;50.692;12.844;2023-04-03T03:19:40;20.00;62.60
76878;DHT22;65843;50.692;12.844;2023-04-03T03:20:41;20.00;62.50
76878;DHT22;65843;50.692;12.844;2023-04-03T03:21:42;20.00;62.80
76878;DHT22;65843;50.692;12.844;2023-04-03T03:22:43;20.00;62.80
76878;DHT22;65843;50.692;12.844;2023-04-03T03:23:44;20.00;62.80
76878;DHT22;65843;50.692;12.844;2023-04-03T03:24:45;20.00;62.80
76878;DHT22;65843;50.692;12.844;2023-04-03T03:25:46;20.00;62.80
76878;DHT22;65843;50.692;12.844;2023-04-03T03:26:47;20.00;62.80
76878;DHT22;65843;50.692;12.844;2023-04-03T03:27:47;20.00;62.70
76878;DHT22;65843;50.692;12.844;2023-04-03T03:28:48;20.00;62.70
76878;DHT22;65843;50.692;12.844;2023-04-03T03:29:50;20.00;62.70
76878;DHT22;65843;50.692;12.844;2023-04-03T03:30:51;20.00;62.70
76878;DHT22;65843;50.692;12.844;2023-04-03T03:31:52;20.00;62.60
76878;DHT22;65843;50.692;12.844;2023-04-03T03:32:53;20.00;62.30
76878;DHT22;65843;50.692;12.844;2023-04-03T03:33:53;20.00;62.60
76878;DHT22;65843;50.692;12.844;2023-04-03T03:34:55;20.00;62.70
76878;DHT22;65843;50.692;12.844;2023-04-03T03:35:56;20.00;62.80
76878;DHT22;65843;50.692;12.844;2023-04-03T03:36:57;20.00;62.50
76878;DHT22;65843;50.692;12.844;2023-04-03T03:37:57;20.00;62.40
76878;DHT22;65843;50.692;12.844;2023-04-03T03:38:58;20.00;62.70
76878;DHT22;65843;50.692;12.844;2023-04-03T03:39:59;20.00;62.50
76878;DHT22;65843;50.692;12.844;2023-04-03T03:41:00;20.00;62.70
76878;DHT22;65843;50.692;12.844;2023-04-03T03:42:01;20.00;62.70
76878;DHT22;65843;50.692;12.844;2023-04-03T03:43:02;20.00;62.80
76878;DHT22;65843;50.692;12.844;2023-04-03T03:44:03;20.00;62.70
76878;DHT22;65843;50.692;12.844;2023-04-03T03:45:05;20.00;62.90
76878;DHT22;65843;50.692;12.844;2023-04-03T03:46:06;20.00;62.50
76878;DHT22;65843;50.692;12.844;2023-04-03T03:47:07;20.00;62.80
76878;DHT22;65843;50.692;12.844;2023-04-03T03:48:10;20.00;62.50
76878;DHT22;65843;50.692;12.844;2023-04-03T03:49:11;20.00;62.80
76878;DHT22;65843;50.692;12.844;2023-04-03T03:50:12;19.90;62.70
76878;DHT22;65843;50.692;12.844;2023-04-03T03:51:13;20.00;62.60
76878;DHT22;65843;50.692;12.844;2023-04-03T03:52:13;19.90;62.50
76878;DHT22;65843;50.692;12.844;2023-04-03T03:53:15;19.90;62.80
76878;DHT22;65843;50.692;12.844;2023-04-03T03:54:15;19.90;62.90
76878;DHT22;65843;50.692;12.844;2023-04-03T03:55:16;19.90;62.90
76878;DHT22;65843;50.692;12.844;2023-04-03T03:56:17;19.90;62.90
76878;DHT22;65843;50.692;12.844;2023-04-03T03:57:18;20.00;62.70
76878;DHT22;65843;50.692;12.844;2023-04-03T03:58:20;19.90;62.70
76878;DHT22;65843;50.692;12.844;2023-04-03T03:59:20;19.90;63.00
76878;DHT22;65843;50.692;12.844;2023-04-03T04:00:21;19.90;62.80
76878;DHT22;65843;50.692;12.844;2023-04-03T04:01:23;19.90;62.90
76878;DHT22;65843;50.692;12.844;2023-04-03T04:02:24;19.90;62.90
76878;DHT22;65843;50.692;12.844;2023-04-03T04:03:25;19.90;63.10
76878;DHT22;65843;50.692;12.844;2023-04-03T04:04:25;19.90;63.10
76878;DHT22;65843;50.692;12.844;2023-04-03T04:05:26;19.90;62.90
76878;DHT22;65843;50.692;12.844;2023-04-03T04:06:27;19.90;63.00
76878;DHT22;65843;50.692;12.844;2023-04-03T04:07:28;19.90;62.90
76878;DHT22;65843;50.692;12.844;2023-04-03T04:08:29;19.90;63.00
76878;DHT22;65843;50.692;12.844;2023-04-03T04:09:30;19.90;63.20
76878;DHT22;65843;50.692;12.844;2023-04-03T04:10:31;19.90;63.10
76878;DHT22;65843;50.692;12.844;2023-04-03T04:11:32;19.90;63.10
76878;DHT22;65843;50.692;12.844;2023-04-03T04:12:34;19.90;63.00
76878;DHT22;65843;50.692;12.844;2023-04-03T04:13:36;19.90;63.00
76878;DHT22;65843;50.692;12.844;2023-04-03T04:14:37;19.90;63.10
76878;DHT22;65843;50.692;12.844;2023-04-03T04:15:37;19.90;63.20
76878;DHT22;65843;50.692;12.844;2023-04-03T04:16:39;19.90;63.20
76878;DHT22;65843;50.692;12.844;2023-04-03T04:17:40;19.90;63.10
76878;DHT22;65843;50.692;12.844;2023-04-03T04:18:41;19.90;63.10
76878;DHT22;65843;50.692;12.844;2023-04-03T04:19:41;19.90;63.10
76878;DHT22;65843;50.692;12.844;2023-04-03T04:20:44;19.90;63.00
76878;DHT22;65843;50.692;12.844;2023-04-03T04:21:45;19.90;63.00
76878;DHT22;65843;50.692;12.844;2023-04-03T04:22:46;19.90;63.00
76878;DHT22;65843;50.692;12.844;2023-04-03T04:23:47;19.90;62.90
76878;DHT22;65843;50.692;12.844;2023-04-03T04:24:48;19.90;63.10
76878;DHT22;65843;50.692;12.844;2023-04-03T04:25:49;19.90;63.30
76878;DHT22;65843;50.692;12.844;2023-04-03T04:26:50;19.90;63.10
76878;DHT22;65843;50.692;12.844;2023-04-03T04:27:51;19.90;63.10
76878;DHT22;65843;50.692;12.844;2023-04-03T04:28:52;19.90;62.60
76878;DHT22;65843;50.692;12.844;2023-04-03T04:29:52;19.90;62.80
76878;DHT22;65843;50.692;12.844;2023-04-03T04:30:53;19.90;63.30
76878;DHT22;65843;50.692;12.844;2023-04-03T04:31:54;19.90;63.10
76878;DHT22;65843;50.692;12.844;2023-04-03T04:32:55;19.90;63.10
76878;DHT22;65843;50.692;12.844;2023-04-03T04:33:56;19.90;62.80
76878;DHT22;65843;50.692;12.844;2023-04-03T04:34:57;19.90;63.20
76878;DHT22;65843;50.692;12.844;2023-04-03T04:35:58;19.90;63.20
76878;DHT22;65843;50.692;12.844;2023-04-03T04:36:59;19.90;63.10
76878;DHT22;65843;50.692;12.844;2023-04-03T04:38:00;19.90;62.90
76878;DHT22;65843;50.692;12.844;2023-04-03T04:39:01;19.90;62.90
76878;DHT22;65843;50.692;12.844;2023-04-03T04:40:02;19.90;63.20
76878;DHT22;65843;50.692;12.844;2023-04-03T04:41:03;19.90;63.00
76878;DHT22;65843;50.692;12.844;2023-04-03T04:42:04;19.90;63.10
76878;DHT22;65843;50.692;12.844;2023-04-03T04:43:07;19.90;63.10
76878;DHT22;65843;50.692;12.844;2023-04-03T04:44:08;19.90;63.20
76878;DHT22;65843;50.692;12.844;2023-04-03T04:45:09;20.00;63.00
76878;DHT22;65843;50.692;12.844;2023-04-03T04:46:10;20.00;62.70
76878;DHT22;65843;50.692;12.844;2023-04-03T04:47:14;20.00;62.10
76878;DHT22;65843;50.692;12.844;2023-04-03T04:48:15;20.00;62.70
76878;DHT22;65843;50.692;12.844;2023-04-03T04:49:16;20.00;62.90
76878;DHT22;65843;50.692;12.844;2023-04-03T04:50:16;20.00;62.60
76878;DHT22;65843;50.692;12.844;2023-04-03T04:51:17;20.00;62.70
76878;DHT22;65843;50.692;12.844;2023-04-03T04:52:18;20.00;62.40
76878;DHT22;65843;50.692;12.844;2023-04-03T04:53:19;20.00;62.70
76878;DHT22;65843;50.692;12.844;2023-04-03T04:54:20;20.00;62.50
76878;DHT22;65843;50.692;12.844;2023-04-03T04:55:21;20.00;62.30
76878;DHT22;65843;50.692;12.844;2023-04-03T04:56:22;20.00;62.30
76878;DHT22;65843;50.692;12.844;2023-04-03T04:57:23;20.00;62.30
76878;DHT22;65843;50.692;12.844;2023-04-03T04:58:24;20.00;62.20
76878;DHT22;65843;50.692;12.844;2023-04-03T04:59:26;19.90;62.00
76878;DHT22;65843;50.692;12.844;2023-04-03T05:00:27;19.90;62.00
76878;DHT22;65843;50.692;12.844;2023-04-03T05:01:28;19.90;61.90
76878;DHT22;65843;50.692;12.844;2023-04-03T05:02:29;19.90;61.90
76878;DHT22;65843;50.692;12.844;2023-04-03T05:03:31;19.90;61.90
76878;DHT22;65843;50.692;12.844;2023-04-03T05:04:32;19.80;61.70
76878;DHT22;65843;50.692;12.844;2023-04-03T05:05:33;19.80;61.80
76878;DHT22;65843;50.692;12.844;2023-04-03T05:06:36;19.80;61.60
76878;DHT22;65843;50.692;12.844;2023-04-03T05:07:37;19.70;61.70
76878;DHT22;65843;50.692;12.844;2023-04-03T05:08:37;19.70;61.10
76878;DHT22;65843;50.692;12.844;2023-04-03T05:09:38;19.70;59.80
76878;DHT22;65843;50.692;12.844;2023-04-03T05:10:44;19.70;59.50
76878;DHT22;65843;50.692;12.844;2023-04-03T05:11:45;19.70;59.70
76878;DHT22;65843;50.692;12.844;2023-04-03T05:12:46;19.70;59.40
76878;DHT22;65843;50.692;12.844;2023-04-03T05:13:47;19.60;59.80
76878;DHT22;65843;50.692;12.844;2023-04-03T05:14:48;19.60;59.70
76878;DHT22;65843;50.692;12.844;2023-04-03T05:15:49;19.60;59.60
76878;DHT22;65843;50.692;12.844;2023-04-03T05:16:50;19.60;59.60
76878;DHT22;65843;50.692;12.844;2023-04-03T05:17:54;19.70;59.60
76878;DHT22;65843;50.692;12.844;2023-04-03T05:18:55;19.60;58.30
76878;DHT22;65843;50.692;12.844;2023-04-03T05:19:56;19.60;57.10
76878;DHT22;65843;50.692;12.844;2023-04-03T05:20:57;19.50;54.10
76878;DHT22;65843;50.692;12.844;2023-04-03T05:21:59;19.50;51.00
76878;DHT22;65843;50.692;12.844;2023-04-03T05:23:00;19.40;49.00
76878;DHT22;65843;50.692;12.844;2023-04-03T05:24:01;19.30;47.70
76878;DHT22;65843;50.692;12.844;2023-04-03T05:25:03;19.10;51.00
76878;DHT22;65843;50.692;12.844;2023-04-03T05:26:04;19.00;49.10
76878;DHT22;65843;50.692;12.844;2023-04-03T05:27:06;18.90;51.20
76878;DHT22;65843;50.692;12.844;2023-04-03T05:28:07;18.80;50.30
76878;DHT22;65843;50.692;12.844;2023-04-03T05:29:08;18.80;48.90
76878;DHT22;65843;50.692;12.844;2023-04-03T05:30:09;18.70;47.60
76878;DHT22;65843;50.692;12.844;2023-04-03T05:31:10;18.60;46.50
76878;DHT22;65843;50.692;12.844;2023-04-03T05:32:11;18.60;47.50
76878;DHT22;65843;50.692;12.844;2023-04-03T05:33:12;18.50;46.60
76878;DHT22;65843;50.692;12.844;2023-04-03T05:34:14;18.40;46.20
76878;DHT22;65843;50.692;12.844;2023-04-03T05:35:15;18.40;47.20
76878;DHT22;65843;50.692;12.844;2023-04-03T05:36:16;18.30;47.30
76878;DHT22;65843;50.692;12.844;2023-04-03T05:37:18;18.30;49.00
76878;DHT22;65843;50.692;12.844;2023-04-03T05:38:19;18.20;50.10
76878;DHT22;65843;50.692;12.844;2023-04-03T05:39:20;18.20;50.90
76878;DHT22;65843;50.692;12.844;2023-04-03T05:40:21;18.20;51.40
76878;DHT22;65843;50.692;12.844;2023-04-03T05:41:22;18.20;52.30
76878;DHT22;65843;50.692;12.844;2023-04-03T05:42:23;18.20;52.90
76878;DHT22;65843;50.692;12.844;2023-04-03T05:43:24;18.30;52.70
76878;DHT22;65843;50.692;12.844;2023-04-03T05:44:25;18.30;52.10
76878;DHT22;65843;50.692;12.844;2023-04-03T05:45:26;18.30;52.00
76878;DHT22;65843;50.692;12.844;2023-04-03T05:46:27;18.30;52.70
76878;DHT22;65843;50.692;12.844;2023-04-03T05:47:28;18.30;52.60
76878;DHT22;65843;50.692;12.844;2023-04-03T05:48:29;18.40;53.00
76878;DHT22;65843;50.692;12.844;2023-04-03T05:49:30;18.40;53.10
76878;DHT22;65843;50.692;12.844;2023-04-03T05:50:31;18.40;53.10
76878;DHT22;65843;50.692;12.844;2023-04-03T05:51:34;18.40;53.00
76878;DHT22;65843;50.692;12.844;2023-04-03T05:52:36;18.40;53.00
76878;DHT22;65843;50.692;12.844;2023-04-03T05:53:37;18.40;52.90
76878;DHT22;65843;50.692;12.844;2023-04-03T05:54:38;18.40;52.90
76878;DHT22;65843;50.692;12.844;2023-04-03T05:55:39;18.40;52.90
76878;DHT22;65843;50.692;12.844;2023-04-03T05:56:40;18.40;52.90
76878;DHT22;65843;50.692;12.844;2023-04-03T05:57:41;18.40;52.60
76878;DHT22;65843;50.692;12.844;2023-04-03T05:58:42;18.40;52.20
76878;DHT22;65843;50.692;12.844;2023-04-03T05:59:43;18.40;52.20
76878;DHT22;65843;50.692;12.844;2023-04-03T06:00:45;18.40;51.90
76878;DHT22;65843;50.692;12.844;2023-04-03T06:01:46;18.40;51.70
76878;DHT22;65843;50.692;12.844;2023-04-03T06:02:47;18.40;51.60
76878;DHT22;65843;50.692;12.844;2023-04-03T06:03:48;18.40;51.50
76878;DHT22;65843;50.692;12.844;2023-04-03T06:04:49;18.40;51.50
76878;DHT22;65843;50.692;12.844;2023-04-03T06:05:51;18.40;51.40
76878;DHT22;65843;50.692;12.844;2023-04-03T06:06:56;18.40;51.40
76878;DHT22;65843;50.692;12.844;2023-04-03T06:07:57;18.40;51.30
76878;DHT22;65843;50.692;12.844;2023-04-03T06:08:58;18.40;51.40
76878;DHT22;65843;50.692;12.844;2023-04-03T06:09:59;18.40;51.30
76878;DHT22;65843;50.692;12.844;2023-04-03T06:11:01;18.40;51.40
76878;DHT22;65843;50.692;12.844;2023-04-03T06:12:03;18.40;51.20
76878;DHT22;65843;50.692;12.844;2023-04-03T06:13:04;18.40;51.30
76878;DHT22;65843;50.692;12.844;2023-04-03T06:14:05;18.40;51.40
76878;DHT22;65843;50.692;12.844;2023-04-03T06:15:06;18.40;51.50
76878;DHT22;65843;50.692;12.844;2023-04-03T06:16:12;18.40;51.50
76878;DHT22;65843;50.692;12.844;2023-04-03T06:17:15;18.40;51.60
76878;DHT22;65843;50.692;12.844;2023-04-03T06:18:18;18.40;51.70
76878;DHT22;65843;50.692;12.844;2023-04-03T06:19:19;18.40;51.80
76878;DHT22;65843;50.692;12.844;2023-04-03T06:20:20;18.40;51.70
76878;DHT22;65843;50.692;12.844;2023-04-03T06:21:22;18.40;51.30
76878;DHT22;65843;50.692;12.844;2023-04-03T06:22:23;18.40;51.70
76878;DHT22;65843;50.692;12.844;2023-04-03T06:23:26;18.40;51.70
76878;DHT22;65843;50.692;12.844;2023-04-03T06:24:27;18.40;51.50
76878;DHT22;65843;50.692;12.844;2023-04-03T06:25:28;18.40;51.40
76878;DHT22;65843;50.692;12.844;2023-04-03T06:26:29;18.40;52.10
76878;DHT22;65843;50.692;12.844;2023-04-03T06:27:30;18.40;52.10
76878;DHT22;65843;50.692;12.844;2023-04-03T06:28:30;18.40;52.70